Tekakwitha, South Dakota
Current Conditions -  °F | °C
As of 6:56 AM on Saturday 22 Nov 2014 (Local Time) from KETH Reporting Station
Clear Clear  
Wind Chill: 17°   Ceiling: Unl
Heat Index: 27°   Visibility: 10mi
Dew Point: 23°   Wind: 9mph
Humidity: 86%   Direction: 170°S
Pressure: 29.69"   Gusts: NA
Location:  45.7041°N, 96.9842°W
Report Text: KETH 221256Z AUTO 17008KT 10SM CLR M03/M05 A2969 RMK AO2
Loading
Personal Weather Stations






























Interactive Weather Map New forecast layout! Learn more

10-Day Weather Forecast

Advertisements
Track Severe Weather on mobile